Time;durP1;ratioP1;P1;durP2;ratioP2;P2;SDS_P1;SDS_P2;PMS_P1;PMS_P2;Temp;Humidity;BMP_temperature;BMP_pressure;BME280_temperature;BME280_humidity;BME280_pressure;Samples;Min_cycle;Max_cycle;Signal;HPM_P1;HPM_P2
2020/12/27 00:02:18;;;;;;;13.10;6.60;;;;;;;0.78;82.53;100817.89;1659109;86;21265;-76
2020/12/27 00:04:44;;;;;;;9.45;5.90;;;;;;;0.79;82.49;100806.89;1659150;86;21561;-76
2020/12/27 00:07:14;;;;;;;9.95;6.15;;;;;;;0.82;82.48;100809.93;1659291;85;21795;-76
2020/12/27 00:09:44;;;;;;;10.90;6.08;;;;;;;0.83;82.47;100798.92;1657001;86;21220;-76
2020/12/27 00:12:12;;;;;;;15.32;5.85;;;;;;;0.86;82.48;100801.55;1659050;85;21945;-76
2020/12/27 00:14:38;;;;;;;13.40;7.08;;;;;;;0.85;82.43;100796.02;1658675;86;21248;-76
2020/12/27 00:17:10;;;;;;;13.88;5.95;;;;;;;0.85;82.42;100796.02;1636669;86;21272;-76
2020/12/27 00:19:38;;;;;;;11.63;6.20;;;;;;;0.84;82.41;100805.33;1659109;85;21499;-76
2020/12/27 00:22:04;;;;;;;15.98;6.12;;;;;;;0.84;82.37;100803.20;1659445;86;21217;-76
2020/12/27 00:24:31;;;;;;;;;;;;;;;0.82;82.34;100806.11;1653963;86;21214;-76
2020/12/27 00:26:58;;;;;;;9.98;7.05;;;;;;;0.81;82.32;100803.11;1656220;85;20204;-76
2020/12/27 00:29:25;;;;;;;8.28;6.12;;;;;;;0.78;82.32;100797.95;1638287;86;21208;-76
2020/12/27 00:31:55;;;;;;;;;;;;;;;0.73;82.30;100782.55;1658856;86;21206;-76
2020/12/27 00:34:23;;;;;;;10.72;6.62;;;;;;;0.71;82.30;100785.47;1649189;85;20336;-76
2020/12/27 00:36:50;;;;;;;8.40;6.37;;;;;;;0.68;82.31;100785.38;1659955;86;21372;-76
2020/12/27 00:39:21;;;;;;;10.30;6.65;;;;;;;0.65;82.37;100786.16;1659308;86;22247;-76
2020/12/27 00:41:45;;;;;;;11.75;6.67;;;;;;;0.65;82.36;100776.40;1657130;85;149147;-77
2020/12/27 00:44:11;;;;;;;13.58;7.58;;;;;;;0.63;82.37;100780.58;1659388;85;21764;-76
2020/12/27 00:46:37;;;;;;;10.72;6.42;;;;;;;0.61;82.33;100769.09;1658504;85;21248;-76
2020/12/27 00:49:03;;;;;;;9.78;5.50;;;;;;;0.59;82.31;100770.73;1659504;86;21665;-76
2020/12/27 00:51:30;;;;;;;13.55;6.78;;;;;;;0.56;82.31;100768.11;1654340;86;21197;-76
2020/12/27 00:53:56;;;;;;;7.92;5.45;;;;;;;0.55;82.35;100770.61;1666877;85;21170;-76
2020/12/27 00:56:22;;;;;;;13.68;6.58;;;;;;;0.53;82.35;100766.75;1682455;85;21229;-76
2020/12/27 00:58:49;;;;;;;10.63;6.28;;;;;;;0.52;82.35;100762.48;1662677;85;21212;-76
2020/12/27 01:01:16;;;;;;;9.38;6.33;;;;;;;0.53;82.34;100750.62;1659191;86;21216;-76
2020/12/27 01:03:43;;;;;;;9.00;6.85;;;;;;;0.51;82.35;100755.70;1659319;86;21101;-76
2020/12/27 01:06:10;;;;;;;13.48;6.95;;;;;;;0.53;82.36;100751.90;1659038;86;21220;-76
2020/12/27 01:08:37;;;;;;;10.03;6.40;;;;;;;0.53;82.37;100749.36;1638091;86;21248;-76
2020/12/27 01:11:05;;;;;;;12.00;5.92;;;;;;;0.50;82.31;100747.62;1659180;86;21221;-76
2020/12/27 01:13:32;;;;;;;10.55;6.85;;;;;;;0.51;82.33;100747.22;1658651;86;21189;-76
2020/12/27 01:15:58;;;;;;;11.15;6.92;;;;;;;0.51;82.33;100738.31;1652065;86;21229;-76
2020/12/27 01:18:24;;;;;;;11.15;5.87;;;;;;;0.50;82.36;100732.36;1658483;86;21205;-76
2020/12/27 01:20:51;;;;;;;13.32;6.60;;;;;;;0.52;82.30;100727.31;1659315;86;21660;-76
2020/12/27 01:23:17;;;;;;;11.43;6.00;;;;;;;0.51;82.35;100718.82;1661609;85;21227;-76
2020/12/27 01:25:48;;;;;;;14.58;6.40;;;;;;;0.52;82.32;100715.86;1659176;85;21798;-76
2020/12/27 01:28:14;;;;;;;10.25;6.03;;;;;;;0.51;82.30;100720.09;1659031;86;21244;-76
2020/12/27 01:30:41;;;;;;;10.93;6.28;;;;;;;0.51;82.29;100717.55;1657815;85;21215;-76
2020/12/27 01:33:07;;;;;;;10.10;6.50;;;;;;;0.52;82.29;100715.42;1659464;85;21200;-76
2020/12/27 01:35:34;;;;;;;9.73;6.42;;;;;;;0.51;82.26;100705.23;1661590;86;21192;-76
2020/12/27 01:38:00;;;;;;;9.98;6.37;;;;;;;0.49;82.26;100698.84;1662477;85;21208;-76
2020/12/27 01:40:27;;;;;;;11.70;7.17;;;;;;;0.49;82.25;100695.02;1662171;85;21122;-76
2020/12/27 01:42:55;;;;;;;11.08;6.47;;;;;;;0.48;82.25;100687.34;1661814;85;21239;-76
2020/12/27 01:45:23;;;;;;;13.15;6.80;;;;;;;0.51;82.29;100686.16;1661818;86;22377;-76
2020/12/27 01:47:51;;;;;;;11.12;6.85;;;;;;;0.49;82.27;100684.84;1662997;86;21196;-76
2020/12/27 01:50:20;;;;;;;14.65;6.62;;;;;;;0.49;82.24;100679.76;1636555;86;21231;-76
2020/12/27 01:52:46;;;;;;;10.93;6.95;;;;;;;0.47;82.22;100674.19;1660636;86;21744;-76
2020/12/27 01:55:13;;;;;;;9.85;6.72;;;;;;;0.46;82.24;100662.28;1673563;84;27117;-76
2020/12/27 01:58:06;;;;;;;11.25;6.35;;;;;;;0.45;82.24;100661.42;1661780;85;21235;-76
2020/12/27 02:00:34;;;;;;;8.95;6.42;;;;;;;0.46;82.28;100653.38;1661060;85;21626;-76
2020/12/27 02:03:01;;;;;;;13.03;6.70;;;;;;;0.46;82.23;100650.84;1662279;86;21216;-76
2020/12/27 02:05:27;;;;;;;10.08;6.08;;;;;;;0.45;82.24;100652.52;1661391;86;21653;-76
2020/12/27 02:07:54;;;;;;;9.33;6.25;;;;;;;0.46;82.26;100647.02;1661713;86;21240;-76
2020/12/27 02:10:21;;;;;;;11.80;6.22;;;;;;;0.46;82.22;100650.84;1661553;85;21199;-76
2020/12/27 02:12:47;;;;;;;11.48;6.70;;;;;;;0.45;82.23;100641.08;1661282;85;21627;-76
2020/12/27 02:15:13;;;;;;;14.70;6.72;;;;;;;0.45;82.23;100635.98;1661807;86;21236;-76
2020/12/27 02:17:40;;;;;;;12.60;6.90;;;;;;;0.45;82.22;100630.90;1635382;86;21256;-76
2020/12/27 02:20:06;;;;;;;9.53;6.25;;;;;;;0.46;82.28;100628.80;1659349;86;21670;-76
2020/12/27 02:22:33;;;;;;;13.18;5.92;;;;;;;0.47;82.23;100628.39;1661528;86;21451;-76
2020/12/27 02:24:59;;;;;;;10.72;6.20;;;;;;;0.48;82.24;100625.89;1684838;84;21147;-76
2020/12/27 02:27:25;;;;;;;10.58;6.22;;;;;;;0.51;82.23;100622.56;1654484;84;21236;-75
2020/12/27 02:29:51;;;;;;;8.63;6.55;;;;;;;0.50;82.21;100608.12;1661506;86;21223;-75
2020/12/27 02:32:18;;;;;;;10.45;6.75;;;;;;;0.49;82.14;100612.34;1661417;86;21232;-75
2020/12/27 02:34:44;;;;;;;9.60;5.97;;;;;;;0.49;82.15;100602.58;1661562;85;21716;-75
2020/12/27 02:37:10;;;;;;;10.30;6.65;;;;;;;0.49;82.15;100600.04;1661761;86;21208;-75
2020/12/27 02:39:36;;;;;;;9.10;6.22;;;;;;;0.47;82.11;100601.27;1661340;86;21236;-75
2020/12/27 02:42:03;;;;;;;12.75;5.95;;;;;;;0.46;82.11;100591.06;1661471;86;21235;-76
2020/12/27 02:46:57;;;;;;;11.30;6.53;;;;;;;0.42;82.05;100576.55;1661157;84;21220;-76
2020/12/27 02:49:23;;;;;;;11.22;6.50;;;;;;;0.39;82.05;100563.34;1655413;86;22282;-76
2020/12/27 02:51:50;;;;;;;9.18;6.03;;;;;;;0.37;82.05;100561.17;1661706;86;21217;-76
2020/12/27 02:54:16;;;;;;;10.15;6.50;;;;;;;0.35;82.05;100567.91;1673519;84;21230;-76
2020/12/27 02:56:42;;;;;;;13.22;7.10;;;;;;;0.32;82.06;100558.52;1671108;84;21208;-76
2020/12/27 02:59:08;;;;;;;12.35;6.95;;;;;;;0.31;82.07;100567.38;1660632;86;21224;-76
2020/12/27 03:01:35;;;;;;;10.40;6.78;;;;;;;0.30;82.08;100561.44;1661328;86;21208;-76
2020/12/27 03:04:01;;;;;;;13.28;6.75;;;;;;;0.27;82.05;100555.00;1661241;86;21312;-76
2020/12/27 03:06:27;;;;;;;13.78;7.30;;;;;;;0.24;82.05;100556.20;1661351;86;21228;-76
2020/12/27 03:08:56;;;;;;;11.20;6.53;;;;;;;0.23;82.06;100553.20;1661118;84;22093;-76
2020/12/27 03:11:24;;;;;;;10.95;5.83;;;;;;;0.21;82.08;100553.99;1661090;86;21775;-76
2020/12/27 03:13:51;;;;;;;10.08;6.62;;;;;;;0.20;82.06;100545.91;1661820;85;21504;-76
2020/12/27 03:16:19;;;;;;;10.43;6.80;;;;;;;0.20;82.11;100539.14;1660314;85;22398;-76
2020/12/27 03:18:45;;;;;;;10.13;6.62;;;;;;;0.19;82.09;100538.70;1658180;86;21236;-75
2020/12/27 03:21:11;;;;;;;10.63;6.08;;;;;;;0.20;82.11;100530.66;1661293;85;21240;-75
2020/12/27 03:23:38;;;;;;;10.40;6.30;;;;;;;0.19;82.08;100531.48;1661359;86;21207;-75
2020/12/27 03:26:04;;;;;;;11.25;6.12;;;;;;;0.17;82.09;100527.63;1661552;85;21252;-75
2020/12/27 03:28:30;;;;;;;10.98;5.78;;;;;;;0.17;82.06;100521.69;1661537;86;21583;-75
2020/12/27 03:30:56;;;;;;;13.55;7.20;;;;;;;0.15;82.03;100519.52;1658944;86;21228;-75
2020/12/27 03:33:23;;;;;;;12.23;6.90;;;;;;;0.08;82.03;100508.34;1660768;85;21236;-75
2020/12/27 03:35:49;;;;;;;8.35;5.85;;;;;;;0.11;82.03;100513.50;1666716;85;138770;-78
2020/12/27 03:38:15;;;;;;;11.08;6.58;;;;;;;0.10;82.00;100509.65;1686426;83;21205;-76
2020/12/27 03:40:42;;;;;;;10.48;6.00;;;;;;;0.07;82.00;100504.48;1681833;85;21225;-76
2020/12/27 03:43:08;;;;;;;14.45;7.30;;;;;;;0.04;82.06;100494.24;1681449;85;21273;-76
2020/12/27 03:45:34;;;;;;;10.55;5.83;;;;;;;0.04;82.06;100494.24;1680464;83;21267;-76
2020/12/27 03:48:01;;;;;;;12.50;6.78;;;;;;;0.01;81.99;100484.86;1681722;85;21236;-76
2020/12/27 03:50:27;;;;;;;11.90;6.92;;;;;;;0.00;81.97;100490.80;1695946;83;21174;-76
2020/12/27 03:52:53;;;;;;;10.23;6.40;;;;;;;-0.03;81.96;100481.42;1675307;83;22134;-76
2020/12/27 03:55:20;;;;;;;10.90;5.95;;;;;;;-0.04;81.96;100478.84;1693152;83;21691;-76
2020/12/27 03:57:46;;;;;;;11.18;6.83;;;;;;;-0.06;81.96;100473.72;1681830;85;21233;-76
2020/12/27 04:00:13;;;;;;;11.22;6.85;;;;;;;-0.06;81.96;100472.86;1694564;83;21218;-76
2020/12/27 04:02:39;;;;;;;11.80;6.75;;;;;;;-0.09;81.92;100463.89;1681933;85;21194;-76
2020/12/27 04:05:06;;;;;;;9.70;5.70;;;;;;;-0.11;81.92;100466.39;1633615;87;22327;-76
2020/12/27 04:07:32;;;;;;;12.45;6.28;;;;;;;-0.13;81.95;100464.22;1623650;86;21456;-76
2020/12/27 04:10:02;;;;;;;;;;;;;;;-0.13;81.95;100465.49;1635626;86;21202;-76
2020/12/27 04:12:28;;;;;;;9.45;5.95;;;;;;;-0.14;81.90;100457.42;1633470;87;20994;-76
2020/12/27 04:14:54;;;;;;;11.80;6.22;;;;;;;-0.16;81.88;100459.47;1635622;86;21274;-76
2020/12/27 04:17:20;;;;;;;11.95;6.87;;;;;;;-0.19;81.87;100460.26;1685122;83;21857;-76
2020/12/27 04:19:47;;;;;;;8.90;5.95;;;;;;;-0.22;81.88;100467.80;1625062;86;683209;-76
2020/12/27 04:22:13;;;;;;;8.43;5.45;;;;;;;-0.23;81.87;100477.93;1624983;88;21231;-76
2020/12/27 04:24:39;;;;;;;11.22;6.58;;;;;;;-0.27;81.86;100464.29;1685150;83;21206;-76
2020/12/27 04:27:07;;;;;;;12.20;6.37;;;;;;;-0.28;81.85;100462.56;1633967;87;21235;-76
2020/12/27 04:29:33;;;;;;;13.88;6.47;;;;;;;-0.29;81.86;100456.17;1653439;86;21274;-76
2020/12/27 04:31:59;;;;;;;13.15;6.83;;;;;;;-0.31;81.83;100444.70;1662816;85;21217;-75
2020/12/27 04:34:25;;;;;;;10.48;5.97;;;;;;;-0.33;81.83;100440.00;1622202;86;21226;-75
2020/12/27 04:36:52;;;;;;;8.00;6.17;;;;;;;-0.36;81.78;100442.05;1634158;87;21226;-75
2020/12/27 04:39:18;;;;;;;9.48;6.08;;;;;;;-0.38;81.82;100444.10;1634073;87;21208;-75
2020/12/27 04:41:45;;;;;;;13.43;6.42;;;;;;;-0.40;81.82;100433.91;1625543;87;21229;-76
2020/12/27 04:44:11;;;;;;;14.87;5.92;;;;;;;-0.42;81.80;100429.20;1634122;87;21241;-76
2020/12/27 04:46:39;;;;;;;;;;;;;;;-0.43;81.77;100423.67;1649700;86;21968;-76
2020/12/27 04:49:08;;;;;;;11.53;6.05;;;;;;;-0.43;81.76;100426.62;1708553;83;20288;-75
2020/12/27 04:51:36;;;;;;;9.95;6.53;;;;;;;-0.45;81.77;100420.64;1688877;83;21212;-76
2020/12/27 04:54:03;;;;;;;7.40;5.30;;;;;;;-0.47;81.72;100412.12;1695350;83;22223;-76
2020/12/27 04:56:29;;;;;;;8.40;5.60;;;;;;;-0.49;81.75;100411.23;1691494;84;21189;-76
2020/12/27 04:58:57;;;;;;;12.30;6.55;;;;;;;-0.48;81.74;100410.41;1689036;83;21208;-76
2020/12/27 05:01:24;;;;;;;9.60;6.10;;;;;;;-0.49;81.69;100403.20;1658891;84;21228;-76
2020/12/27 05:03:52;;;;;;;10.32;5.83;;;;;;;-0.53;81.75;100394.22;1663576;84;21241;-76
2020/12/27 05:06:19;;;;;;;16.85;7.53;;;;;;;-0.55;81.75;100397.99;1689444;84;21196;-76
2020/12/27 05:08:46;;;;;;;9.63;5.95;;;;;;;-0.56;81.75;100393.73;1663559;84;21706;-76
2020/12/27 05:11:16;;;;;;;8.80;6.87;;;;;;;-0.56;81.78;100400.09;1689531;84;21738;-76
2020/12/27 05:13:49;;;;;;;12.35;6.53;;;;;;;-0.57;81.74;100397.09;1688857;83;21215;-76
2020/12/27 05:16:15;;;;;;;8.70;6.28;;;;;;;-0.58;81.75;100394.52;1690711;83;21189;-75
2020/12/27 05:18:44;;;;;;;14.87;8.05;;;;;;;-0.60;81.70;100384.73;1689269;84;21762;-75
2020/12/27 05:21:10;;;;;;;14.10;7.50;;;;;;;-0.63;81.72;100382.98;1669677;84;21237;-75
2020/12/27 05:23:37;;;;;;;14.68;8.00;;;;;;;-0.64;81.75;100382.94;1689456;83;21229;-75
2020/12/27 05:26:07;;;;;;;10.38;7.12;;;;;;;-0.64;81.76;100370.24;1689355;84;21745;-75
2020/12/27 05:28:34;;;;;;;12.78;7.72;;;;;;;-0.65;81.74;100378.27;1689197;84;21476;-75
2020/12/27 05:31:12;;;;;;;11.70;6.83;;;;;;;-0.67;81.74;100379.50;1688814;84;21209;-75
2020/12/27 05:33:41;;;;;;;19.15;8.13;;;;;;;-0.68;81.76;100371.84;1689268;84;21483;-75
2020/12/27 05:36:11;;;;;;;11.73;7.42;;;;;;;-0.70;81.76;100369.27;1620489;83;5000631;-75
2020/12/27 05:38:38;;;;;;;10.28;7.22;;;;;;;-0.71;81.76;100361.61;1640667;87;21209;-75
2020/12/27 05:41:05;;;;;;;12.68;7.50;;;;;;;-0.72;81.73;100376.39;1640046;87;21258;-75
2020/12/27 05:43:31;;;;;;;14.18;8.03;;;;;;;-0.75;81.79;100375.91;1641050;87;22340;-76
2020/12/27 05:45:58;;;;;;;16.27;7.85;;;;;;;-0.76;81.77;100377.13;1640572;87;21639;-76
2020/12/27 05:48:24;;;;;;;14.80;8.13;;;;;;;-0.77;81.81;100381.35;1628086;86;21214;-75
2020/12/27 05:50:51;;;;;;;;;;;;;;;-0.78;81.80;100381.31;1664093;86;21238;-75
2020/12/27 05:53:23;;;;;;;18.87;8.30;;;;;;;-0.80;81.77;100367.72;1640600;86;20680;-75
2020/12/27 05:55:52;;;;;;;18.02;8.85;;;;;;;-0.83;81.81;100360.89;1678112;84;21247;-75
2020/12/27 05:58:21;;;;;;;15.98;8.33;;;;;;;-0.85;81.82;100348.56;1695307;83;21205;-75
2020/12/27 06:00:55;;;;;;;17.15;8.50;;;;;;;-0.86;81.82;100337.97;1702702;83;21190;-75
2020/12/27 06:03:26;;;;;;;11.00;7.47;;;;;;;-0.89;81.79;100331.55;1675682;83;21132;-76
2020/12/27 06:05:57;;;;;;;13.68;8.40;;;;;;;-0.93;81.79;100322.13;1670324;84;21719;-75
2020/12/27 06:08:52;;;;;;;12.25;8.35;;;;;;;-0.93;81.80;100318.33;1669446;85;22189;-75
2020/12/27 06:11:24;;;;;;;14.63;8.05;;;;;;;-0.93;81.85;100317.47;1668022;85;21653;-75
2020/12/27 06:14:18;;;;;;;15.83;8.35;;;;;;;-0.94;81.85;100314.07;1642214;87;22316;-75
2020/12/27 06:16:50;;;;;;;14.15;7.92;;;;;;;-0.95;81.86;100306.00;1641150;86;21240;-75
2020/12/27 06:19:31;;;;;;;10.95;6.85;;;;;;;-0.95;81.87;100306.00;1659493;85;21760;-75
2020/12/27 06:22:08;;;;;;;10.93;7.30;;;;;;;-0.95;81.84;100302.20;1666389;85;21941;-75
2020/12/27 06:24:34;;;;;;;;;;;;;;;-0.96;81.84;100293.28;1662619;86;21147;-75
2020/12/27 06:27:02;;;;;;;10.18;6.97;;;;;;;-0.95;81.86;100288.66;1638176;85;20621;-75
2020/12/27 06:29:36;;;;;;;13.35;6.47;;;;;;;-0.95;81.84;100291.19;1669307;84;21236;-75
2020/12/27 06:32:06;;;;;;;11.48;6.17;;;;;;;-0.93;81.82;100293.36;1669404;85;21699;-76
2020/12/27 06:34:33;;;;;;;10.80;6.60;;;;;;;-0.93;81.79;100281.53;1669213;85;21247;-75
2020/12/27 06:36:59;;;;;;;10.85;6.90;;;;;;;-0.92;81.80;100279.44;1668751;85;21578;-75
2020/12/27 06:39:29;;;;;;;10.58;6.60;;;;;;;-0.90;81.80;100273.98;1650219;86;21208;-75
2020/12/27 06:42:15;;;;;;;9.93;6.90;;;;;;;-0.86;81.84;100269.84;1668172;86;21236;-76
2020/12/27 06:44:50;;;;;;;8.25;6.37;;;;;;;-0.83;81.84;100269.52;1650973;86;21181;-75
2020/12/27 06:47:17;;;;;;;9.28;6.00;;;;;;;-0.81;81.83;100265.74;1666660;84;21292;-75
2020/12/27 06:49:45;;;;;;;12.03;7.33;;;;;;;-0.78;81.80;100261.59;1659335;86;21232;-75
2020/12/27 06:52:24;;;;;;;8.45;6.08;;;;;;;-0.75;81.83;100257.86;1660775;86;21216;-75
2020/12/27 06:54:53;;;;;;;9.73;6.90;;;;;;;-0.72;81.81;100252.86;1662385;84;21224;-75
2020/12/27 06:57:43;;;;;;;15.32;7.60;;;;;;;-0.69;81.77;100241.92;1660954;86;21634;-75
2020/12/27 07:00:30;;;;;;;12.53;6.70;;;;;;;-0.68;81.73;100244.91;1662924;86;21645;-74
2020/12/27 07:03:13;;;;;;;15.15;6.95;;;;;;;-0.67;81.75;100252.97;1661332;84;22374;-74
2020/12/27 07:05:41;;;;;;;13.80;7.78;;;;;;;-0.66;81.74;100245.80;1664999;85;21223;-74
2020/12/27 07:08:14;;;;;;;13.83;8.23;;;;;;;-0.64;81.75;100242.88;1662448;85;21215;-74
2020/12/27 07:10:48;;;;;;;14.40;8.20;;;;;;;-0.63;81.71;100237.39;1664137;86;21243;-74
2020/12/27 07:13:16;;;;;;;12.40;7.30;;;;;;;-0.63;81.71;100226.83;1665771;85;21248;-74
2020/12/27 07:15:54;;;;;;;15.32;7.22;;;;;;;-0.63;81.69;100226.83;1661775;86;21202;-74
2020/12/27 07:18:25;;;;;;;11.90;7.37;;;;;;;-0.62;81.71;100215.84;1659619;86;21212;-74
2020/12/27 07:20:57;;;;;;;13.53;7.70;;;;;;;-0.61;81.70;100208.67;1658390;86;21217;-74
2020/12/27 07:23:26;;;;;;;9.23;6.03;;;;;;;-0.61;81.68;100201.06;1661342;86;21803;-74
2020/12/27 07:25:57;;;;;;;9.65;6.00;;;;;;;-0.60;81.69;100198.11;1663972;83;156056;-74
2020/12/27 07:28:24;;;;;;;12.60;6.70;;;;;;;-0.61;81.67;100194.71;1665519;84;21148;-74
2020/12/27 07:31:03;;;;;;;8.45;5.50;;;;;;;-0.61;81.67;100200.20;1664393;86;21205;-74
2020/12/27 07:33:36;;;;;;;13.43;6.57;;;;;;;-0.60;81.67;100200.65;1656967;84;141699;-74
2020/12/27 07:36:08;;;;;;;9.10;6.30;;;;;;;-0.58;81.73;100192.66;1664060;84;21218;-74
2020/12/27 07:38:59;;;;;;;9.85;5.87;;;;;;;-0.56;81.67;100182.98;1658388;86;21804;-74
2020/12/27 07:41:28;;;;;;;7.80;6.20;;;;;;;-0.55;81.65;100174.53;1666214;86;21237;-74
2020/12/27 07:43:56;;;;;;;9.95;5.35;;;;;;;-0.51;81.66;100172.47;1664099;85;21223;-75
2020/12/27 07:46:24;;;;;;;10.78;5.40;;;;;;;-0.50;81.63;100160.63;1665772;84;21194;-75
2020/12/27 07:48:50;;;;;;;12.70;6.70;;;;;;;-0.50;81.62;100153.88;1669012;86;21129;-75
2020/12/27 07:51:23;;;;;;;9.28;5.97;;;;;;;-0.47;81.59;100153.08;1665845;86;21582;-75
2020/12/27 07:53:55;;;;;;;7.55;6.00;;;;;;;-0.47;81.59;100146.73;1655397;86;21841;-75
2020/12/27 07:56:27;;;;;;;9.85;6.10;;;;;;;-0.46;81.58;100143.37;1664279;86;21291;-75
2020/12/27 07:59:02;;;;;;;6.80;5.65;;;;;;;-0.45;81.59;100148.89;1664939;84;21544;-75
2020/12/27 08:01:32;;;;;;;10.75;6.08;;;;;;;-0.44;81.59;100150.61;1666928;86;21219;-75
2020/12/27 08:04:02;;;;;;;9.50;5.60;;;;;;;-0.43;81.59;100145.56;1664143;85;22021;-74
2020/12/27 08:06:32;;;;;;;9.05;5.92;;;;;;;-0.42;81.58;100138.38;1665617;85;22320;-74
2020/12/27 08:09:10;;;;;;;8.95;5.40;;;;;;;-0.40;81.55;100138.41;1662769;85;21214;-74
2020/12/27 08:11:42;;;;;;;10.40;5.85;;;;;;;-0.38;81.58;100135.49;1661407;85;21227;-74
2020/12/27 08:14:11;;;;;;;11.28;6.00;;;;;;;-0.37;81.54;100125.36;1662687;86;21208;-74
2020/12/27 08:16:41;;;;;;;7.40;5.58;;;;;;;-0.35;81.51;100127.94;1666506;84;21212;-74
2020/12/27 08:19:11;;;;;;;9.65;5.95;;;;;;;-0.34;81.52;100130.51;1663948;85;21210;-74
2020/12/27 08:21:40;;;;;;;9.83;5.92;;;;;;;-0.30;81.55;100130.16;1660914;85;21218;-74
2020/12/27 08:24:09;;;;;;;8.53;5.67;;;;;;;-0.27;81.52;100134.44;1659544;85;21227;-74
2020/12/27 08:26:39;;;;;;;9.00;5.42;;;;;;;-0.26;81.42;100128.13;1661734;84;21217;-74
2020/12/27 08:29:21;;;;;;;8.23;5.40;;;;;;;-0.25;81.43;100128.98;1663400;86;21797;-74
2020/12/27 08:31:52;;;;;;;8.10;5.25;;;;;;;-0.23;81.44;100120.56;1657534;86;21240;-74
2020/12/27 08:34:24;;;;;;;8.33;5.17;;;;;;;-0.21;81.45;100120.17;1664461;85;21988;-74
2020/12/27 08:36:55;;;;;;;8.93;5.05;;;;;;;-0.18;81.40;100116.84;1665977;85;21553;-74
2020/12/27 08:39:46;;;;;;;9.48;5.58;;;;;;;-0.15;81.40;100104.19;1662179;86;21222;-74
2020/12/27 08:42:35;;;;;;;8.53;4.97;;;;;;;-0.14;81.34;100102.95;1635718;86;21205;-74
2020/12/27 08:45:16;;;;;;;6.40;4.70;;;;;;;-0.11;81.32;100092.84;1663157;85;21582;-77
2020/12/27 08:47:54;;;;;;;7.28;4.90;;;;;;;-0.07;81.37;100088.67;1662464;85;21249;-78
2020/12/27 08:50:24;;;;;;;11.28;5.08;;;;;;;-0.04;81.34;100083.23;1658545;86;21199;-78
2020/12/27 08:53:02;;;;;;;8.73;4.50;;;;;;;0.00;81.25;100090.05;1663370;86;21120;-78
2020/12/27 08:55:30;;;;;;;9.78;4.70;;;;;;;0.02;81.28;100083.73;1659789;85;21942;-78
2020/12/27 08:57:58;;;;;;;7.20;4.45;;;;;;;0.06;81.24;100076.59;1665684;84;21260;-78
2020/12/27 09:00:34;;;;;;;8.85;5.40;;;;;;;0.10;81.24;100078.37;1664354;84;21224;-78
2020/12/27 09:03:03;;;;;;;8.20;4.87;;;;;;;0.12;81.21;100072.04;1662702;86;21681;-79
2020/12/27 09:05:35;;;;;;;7.53;4.72;;;;;;;0.14;81.18;100066.16;1663894;84;21631;-75
2020/12/27 09:08:13;;;;;;;8.40;4.75;;;;;;;0.19;81.14;100071.31;1665329;85;22020;-76
2020/12/27 09:10:40;;;;;;;6.72;4.83;;;;;;;0.21;81.11;100061.61;1663761;86;21756;-79
2020/12/27 09:13:11;;;;;;;9.30;4.58;;;;;;;0.24;81.11;100053.19;1664959;85;21214;-78
2020/12/27 09:15:50;;;;;;;7.42;5.03;;;;;;;0.26;81.09;100055.33;1663601;84;21230;-78
2020/12/27 09:18:31;;;;;;;6.90;3.60;;;;;;;0.29;81.06;100043.94;1663119;85;21714;-77
2020/12/27 09:21:03;;;;;;;6.95;4.47;;;;;;;0.30;80.97;100041.42;1668285;85;21006;-77
2020/12/27 09:23:29;;;;;;;10.75;4.87;;;;;;;0.33;80.96;100037.66;1667415;84;21160;-77
2020/12/27 09:26:08;;;;;;;7.75;4.15;;;;;;;0.37;80.97;100036.44;1667492;86;21137;-77
2020/12/27 09:28:37;;;;;;;6.45;4.08;;;;;;;0.39;80.97;100035.62;1667784;84;21466;-77
2020/12/27 09:31:07;;;;;;;6.67;4.03;;;;;;;0.44;80.93;100036.56;1663115;86;21112;-76
2020/12/27 09:33:48;;;;;;;5.50;3.67;;;;;;;0.48;80.92;100015.43;1667775;86;21921;-77
2020/12/27 09:36:16;;;;;;;6.92;3.98;;;;;;;0.53;80.87;100014.19;1663208;86;21159;-78
2020/12/27 09:38:45;;;;;;;7.97;3.77;;;;;;;0.57;80.83;100016.80;1666106;85;21579;-77
2020/12/27 09:41:16;;;;;;;7.47;3.90;;;;;;;0.60;80.81;100007.95;1668477;86;21541;-77
2020/12/27 09:43:59;;;;;;;4.42;3.15;;;;;;;0.68;80.82;100006.78;1668224;85;21140;-77
2020/12/27 09:46:46;;;;;;;5.37;3.33;;;;;;;0.73;80.70;100003.03;1668179;84;21997;-77
2020/12/27 09:49:28;;;;;;;5.37;3.37;;;;;;;0.80;80.68;99993.37;1667631;85;21466;-77
2020/12/27 09:52:13;;;;;;;5.17;3.25;;;;;;;0.85;80.61;99993.87;1651515;86;21148;-76
2020/12/27 09:54:43;;;;;;;9.00;3.75;;;;;;;0.90;80.60;99988.84;1663107;85;21136;-78
2020/12/27 09:57:18;;;;;;;6.37;3.67;;;;;;;0.94;80.61;99976.17;1651028;86;21136;-78
2020/12/27 09:59:46;;;;;;;9.08;3.67;;;;;;;0.98;80.54;99972.84;1667179;86;21203;-82
2020/12/27 10:02:14;;;;;;;5.28;3.45;;;;;;;1.03;80.49;99969.08;1666824;84;21141;-77
2020/12/27 10:04:40;;;;;;;4.60;2.77;;;;;;;1.08;80.36;99960.19;1665462;86;21104;-74
2020/12/27 10:07:07;;;;;;;5.35;2.80;;;;;;;1.09;80.32;99956.39;1668342;86;21124;-75
2020/12/27 10:09:33;;;;;;;5.97;2.72;;;;;;;1.11;80.27;99960.22;1668521;86;21718;-75
2020/12/27 10:11:59;;;;;;;4.78;2.92;;;;;;;1.13;80.14;99958.13;1664852;84;21226;-75
2020/12/27 10:14:26;;;;;;;3.05;2.30;;;;;;;1.14;80.18;99947.53;1649455;86;21666;-75
2020/12/27 10:16:52;;;;;;;7.20;2.80;;;;;;;1.16;80.08;99943.31;1659989;84;21632;-75
2020/12/27 10:19:19;;;;;;;5.55;2.62;;;;;;;1.18;80.06;99936.54;1663703;86;21136;-75
2020/12/27 10:21:48;;;;;;;4.03;2.50;;;;;;;1.20;79.97;99936.99;1662119;84;26513;-75
2020/12/27 10:24:15;;;;;;;4.20;2.67;;;;;;;1.24;80.02;99926.42;1664853;86;21159;-75
2020/12/27 10:26:42;;;;;;;;;;;;;;;1.26;79.95;99924.33;1663941;86;21136;-75
2020/12/27 10:29:08;;;;;;;4.15;2.95;;;;;;;1.29;79.81;99926.91;1663342;86;20257;-74
2020/12/27 10:31:35;;;;;;;4.33;2.25;;;;;;;1.31;79.84;99915.46;1665206;84;28213;-75
2020/12/27 10:34:01;;;;;;;7.15;3.22;;;;;;;1.32;79.84;99918.44;1665689;86;21180;-76
2020/12/27 10:36:27;;;;;;;5.90;2.95;;;;;;;1.33;79.80;99910.81;1672288;83;22378;-76
2020/12/27 10:38:53;;;;;;;4.70;3.35;;;;;;;1.35;79.78;99908.70;1688459;83;21227;-74
2020/12/27 10:41:20;;;;;;;6.22;3.65;;;;;;;1.37;79.78;99907.03;1686945;84;21195;-75
2020/12/27 10:43:49;;;;;;;5.87;3.72;;;;;;;1.38;79.77;99906.19;1686716;84;21271;-75
2020/12/27 10:46:14;;;;;;;9.75;4.35;;;;;;;1.40;79.68;99908.33;1686076;84;21631;-76
2020/12/27 10:48:40;;;;;;;7.58;3.87;;;;;;;1.41;79.75;99907.49;1686436;84;22188;-77
2020/12/27 10:51:07;;;;;;;4.25;2.70;;;;;;;1.43;79.67;99904.13;1682479;84;21239;-75
2020/12/27 10:53:34;;;;;;;8.15;3.42;;;;;;;1.44;79.66;99900.73;1686090;84;21212;-80
2020/12/27 10:56:00;;;;;;;4.85;2.75;;;;;;;1.45;79.55;99896.49;1657241;84;21216;-76
2020/12/27 10:58:26;;;;;;;7.25;3.27;;;;;;;1.46;79.52;99893.11;1693981;84;21223;-79
2020/12/27 11:00:53;;;;;;;4.65;2.67;;;;;;;1.46;79.37;99888.87;1693336;84;21715;-75
2020/12/27 11:03:19;;;;;;;6.67;3.77;;;;;;;1.46;79.41;99902.02;1692664;83;21203;-72
2020/12/27 11:05:46;;;;;;;6.22;3.47;;;;;;;1.47;79.44;99894.39;1688869;84;21461;-76
2020/12/27 11:08:13;;;;;;;5.08;2.77;;;;;;;1.48;79.37;99888.88;1691816;84;21163;-76
2020/12/27 11:10:46;;;;;;;9.43;3.80;;;;;;;1.49;79.31;99885.07;1695482;84;21159;-76
2020/12/27 11:13:12;;;;;;;7.08;4.00;;;;;;;1.52;79.36;99876.60;1693245;84;21217;-76
2020/12/27 11:15:38;;;;;;;7.60;4.25;;;;;;;1.52;79.32;99859.62;1691319;84;24333;-76
2020/12/27 11:18:05;;;;;;;12.68;3.90;;;;;;;1.54;79.35;99864.73;1690858;83;21226;-76
2020/12/27 11:20:31;;;;;;;;;;;;;;;1.55;79.30;99849.88;1694378;84;21225;-76
2020/12/27 11:22:59;;;;;;;6.47;3.47;;;;;;;1.58;79.13;99847.33;1695197;84;20296;-76
2020/12/27 11:25:26;;;;;;;8.90;4.05;;;;;;;1.60;79.19;99838.00;1692293;84;22387;-76
2020/12/27 11:27:53;;;;;;;8.23;3.90;;;;;;;1.61;79.19;99838.43;1689709;84;21412;-76
2020/12/27 11:30:19;;;;;;;6.35;3.20;;;;;;;1.64;79.17;99828.27;1690735;83;21672;-76
2020/12/27 11:32:46;;;;;;;9.48;3.40;;;;;;;1.65;79.08;99820.63;1691918;84;21220;-76
2020/12/27 11:35:12;;;;;;;5.75;2.67;;;;;;;1.69;79.10;99815.13;1691027;83;26941;-76
2020/12/27 11:37:39;;;;;;;5.92;3.40;;;;;;;1.71;78.99;99806.22;1671136;84;21230;-76
2020/12/27 11:40:05;;;;;;;6.60;2.98;;;;;;;1.72;79.01;99811.33;1665996;84;21262;-76
2020/12/27 11:42:32;;;;;;;5.65;3.30;;;;;;;1.75;79.03;99802.44;1666571;86;28344;-77